Time,TemperatureF,DewpointF,PressureIn,WindDirection,WindDirectionDegrees,WindSpeedMPH,WindSpeedGustMPH,Humidity,HourlyPrecipIn,Conditions,Clouds,dailyrainin,SoftwareType,DateUTC
2013-01-18 00:00:00,32.9,26.0,30.03,North,360,3.7,5.1,72,0.00,,,0.00,Rainwise IP-100,2013-01-18 05:00:00,
2013-01-18 00:03:00,32.9,26.0,30.04,NNE,22,2.1,6.5,72,0.00,,,0.00,Rainwise IP-100,2013-01-18 05:03:00,
2013-01-18 00:08:00,32.9,26.0,30.03,NNE,22,1.9,6.1,72,0.00,,,0.00,Rainwise IP-100,2013-01-18 05:08:00,
2013-01-18 00:13:00,32.8,26.0,30.03,NNE,22,4.0,6.3,72,0.00,,,0.00,Rainwise IP-100,2013-01-18 05:13:00,
2013-01-18 00:18:00,32.8,24.0,30.02,NE,45,5.4,13.1,71,0.00,,,0.00,Rainwise IP-100,2013-01-18 05:18:00,
2013-01-18 00:23:00,32.8,24.0,30.01,NE,45,3.0,9.1,70,0.00,,,0.00,Rainwise IP-100,2013-01-18 05:23:00,
2013-01-18 00:28:00,32.6,24.0,29.99,NNE,22,2.3,4.9,70,0.00,,,0.00,Rainwise IP-100,2013-01-18 05:28:00,
2013-01-18 00:33:00,32.4,24.0,29.99,NNE,22,2.3,12.4,70,0.00,,,0.00,Rainwise IP-100,2013-01-18 05:33:00,
2013-01-18 00:38:00,32.4,24.0,30.00,North,360,0.0,6.5,70,0.00,,,0.00,Rainwise IP-100,2013-01-18 05:38:00,
2013-01-18 00:43:00,32.3,24.0,30.01,WNW,292,2.3,3.5,71,0.00,,,0.00,Rainwise IP-100,2013-01-18 05:43:00,
2013-01-18 00:48:00,32.3,24.0,30.01,North,360,1.4,4.7,72,0.00,,,0.00,Rainwise IP-100,2013-01-18 05:48:00,
2013-01-18 00:53:00,32.2,24.0,30.01,NNE,22,3.5,6.1,72,0.00,,,0.00,Rainwise IP-100,2013-01-18 05:53:00,
2013-01-18 00:58:00,32.2,24.0,30.01,ENE,67,1.9,3.5,73,0.00,,,0.00,Rainwise IP-100,2013-01-18 05:58:00,
2013-01-18 01:03:00,32.2,24.0,30.00,ENE,67,1.4,4.7,74,0.00,,,0.00,Rainwise IP-100,2013-01-18 06:03:00,
2013-01-18 01:08:00,32.1,24.0,29.99,NE,45,2.8,6.3,74,0.00,,,0.00,Rainwise IP-100,2013-01-18 06:08:00,
2013-01-18 01:13:00,32.0,24.0,29.99,NNE,22,2.3,5.8,74,0.00,,,0.00,Rainwise IP-100,2013-01-18 06:13:00,
2013-01-18 01:18:00,31.9,24.0,30.00,NNE,22,1.4,8.2,74,0.00,,,0.00,Rainwise IP-100,2013-01-18 06:18:00,
2013-01-18 01:23:00,31.8,24.0,30.00,ENE,67,3.5,7.2,74,0.00,,,0.00,Rainwise IP-100,2013-01-18 06:23:00,
2013-01-18 01:28:00,31.6,24.0,30.00,NE,45,1.6,6.1,73,0.00,,,0.00,Rainwise IP-100,2013-01-18 06:28:00,
2013-01-18 01:33:00,31.4,23.0,30.00,NNE,22,0.0,3.7,73,0.00,,,0.00,Rainwise IP-100,2013-01-18 06:33:00,
2013-01-18 01:38:00,31.3,23.0,30.00,NE,45,1.9,4.9,73,0.00,,,0.00,Rainwise IP-100,2013-01-18 06:38:00,
2013-01-18 01:43:00,31.2,23.0,30.02,NNE,22,2.6,9.1,73,0.00,,,0.00,Rainwise IP-100,2013-01-18 06:43:00,
2013-01-18 01:48:00,31.2,23.0,30.02,NNW,337,7.2,7.2,72,0.00,,,0.00,Rainwise IP-100,2013-01-18 06:48:00,
2013-01-18 01:53:00,31.0,23.0,30.02,NE,45,5.6,11.7,72,0.00,,,0.00,Rainwise IP-100,2013-01-18 06:53:00,
2013-01-18 01:58:00,30.4,23.0,30.00,NE,45,2.3,8.2,73,0.00,,,0.00,Rainwise IP-100,2013-01-18 06:58:00,
2013-01-18 02:03:00,30.0,24.0,30.00,North,360,11.7,14.0,75,0.00,,,0.00,Rainwise IP-100,2013-01-18 07:03:00,
2013-01-18 02:08:00,29.4,23.0,30.01,NNE,22,4.4,14.7,77,0.00,,,0.00,Rainwise IP-100,2013-01-18 07:08:00,
2013-01-18 02:13:00,28.6,24.0,30.02,East,90,2.8,14.2,79,0.00,,,0.00,Rainwise IP-100,2013-01-18 07:13:00,
2013-01-18 02:18:00,28.0,23.0,30.02,North,360,7.7,12.4,81,0.00,,,0.00,Rainwise IP-100,2013-01-18 07:18:00,
2013-01-18 02:23:00,27.4,24.0,30.03,North,360,1.9,10.5,84,0.00,,,0.00,Rainwise IP-100,2013-01-18 07:23:00,
2013-01-18 02:28:00,27.1,24.0,30.04,NNW,337,4.4,10.0,86,0.00,,,0.00,Rainwise IP-100,2013-01-18 07:28:00,
2013-01-18 02:33:00,27.0,24.0,30.06,East,90,2.8,10.3,88,0.00,,,0.00,Rainwise IP-100,2013-01-18 07:33:00,
2013-01-18 02:38:00,26.9,24.0,30.08,NNW,337,3.3,11.0,89,0.00,,,0.00,Rainwise IP-100,2013-01-18 07:38:00,
2013-01-18 02:43:00,26.8,24.0,30.08,NNE,22,4.9,8.2,89,0.00,,,0.00,Rainwise IP-100,2013-01-18 07:43:00,
2013-01-18 02:48:00,26.8,26.0,30.05,North,360,6.1,8.6,90,0.00,,,0.00,Rainwise IP-100,2013-01-18 07:48:00,
2013-01-18 02:53:00,26.6,26.0,30.04,NNW,337,7.0,13.1,91,0.00,,,0.00,Rainwise IP-100,2013-01-18 07:53:00,
2013-01-18 02:58:00,26.5,26.0,30.02,NE,45,7.0,14.0,91,0.00,,,0.00,Rainwise IP-100,2013-01-18 07:58:00,
2013-01-18 03:03:00,26.2,24.0,30.01,NNW,337,6.5,11.0,91,0.00,,,0.00,Rainwise IP-100,2013-01-18 08:03:00,
2013-01-18 03:08:00,25.9,24.0,30.01,NNW,337,10.3,11.4,92,0.00,,,0.00,Rainwise IP-100,2013-01-18 08:08:00,
2013-01-18 03:13:00,25.4,24.0,30.02,NNE,22,6.5,17.3,93,0.00,,,0.00,Rainwise IP-100,2013-01-18 08:13:00,
2013-01-18 03:18:00,25.1,24.0,30.03,NNW,337,6.5,16.3,93,0.00,,,0.00,Rainwise IP-100,2013-01-18 08:18:00,
2013-01-18 03:23:00,24.9,24.0,30.04,North,360,5.1,13.5,93,0.00,,,0.00,Rainwise IP-100,2013-01-18 08:23:00,
2013-01-18 03:28:00,24.8,24.0,30.05,NNE,22,3.7,14.5,93,0.00,,,0.00,Rainwise IP-100,2013-01-18 08:28:00,
2013-01-18 03:33:00,24.8,24.0,30.08,North,360,8.2,13.5,93,0.00,,,0.00,Rainwise IP-100,2013-01-18 08:33:00,
2013-01-18 03:38:00,24.7,24.0,30.08,NNW,337,3.5,10.5,94,0.00,,,0.00,Rainwise IP-100,2013-01-18 08:38:00,
2013-01-18 03:43:00,24.7,24.0,30.08,NNW,337,5.1,5.8,94,0.00,,,0.00,Rainwise IP-100,2013-01-18 08:43:00,
2013-01-18 03:48:00,24.6,24.0,30.06,NE,45,3.5,7.5,94,0.00,,,0.00,Rainwise IP-100,2013-01-18 08:48:00,
2013-01-18 03:52:00,24.5,24.0,30.05,East,90,4.0,6.5,94,0.00,,,0.00,Rainwise IP-100,2013-01-18 08:52:00,
2013-01-18 03:55:00,24.3,23.0,30.05,ENE,67,2.6,7.5,94,0.00,,,0.00,Rainwise IP-100,2013-01-18 08:55:00,
2013-01-18 04:01:00,24.0,23.0,30.03,ENE,67,3.3,6.3,94,0.00,,,0.00,Rainwise IP-100,2013-01-18 09:01:00,
2013-01-18 04:06:00,23.9,23.0,30.03,East,90,1.4,7.2,94,0.00,,,0.00,Rainwise IP-100,2013-01-18 09:06:00,
2013-01-18 04:11:00,23.9,23.0,30.02,NNE,22,1.6,5.8,94,0.00,,,0.00,Rainwise IP-100,2013-01-18 09:11:00,
2013-01-18 04:17:00,24.0,23.0,30.04,ENE,67,1.9,7.0,94,0.00,,,0.00,Rainwise IP-100,2013-01-18 09:17:00,
2013-01-18 04:22:00,24.0,23.0,30.04,NNE,22,2.1,4.7,94,0.00,,,0.00,Rainwise IP-100,2013-01-18 09:22:00,
2013-01-18 04:27:00,24.1,23.0,30.04,NNW,337,3.0,4.9,94,0.00,,,0.00,Rainwise IP-100,2013-01-18 09:27:00,
2013-01-18 04:32:00,24.1,23.0,30.06,North,360,4.7,7.7,94,0.00,,,0.00,Rainwise IP-100,2013-01-18 09:32:00,
2013-01-18 04:37:00,24.1,23.0,30.06,NE,45,1.9,6.1,94,0.00,,,0.00,Rainwise IP-100,2013-01-18 09:37:00,
2013-01-18 04:42:00,24.1,23.0,30.05,North,360,1.4,4.2,94,0.00,,,0.00,Rainwise IP-100,2013-01-18 09:42:00,
2013-01-18 04:47:00,24.1,23.0,30.05,ENE,67,2.8,5.4,93,0.00,,,0.00,Rainwise IP-100,2013-01-18 09:47:00,
2013-01-18 04:52:00,24.2,23.0,30.04,NNE,22,2.8,3.5,93,0.00,,,0.00,Rainwise IP-100,2013-01-18 09:52:00,
2013-01-18 04:57:00,24.1,23.0,30.05,NNE,22,1.2,6.3,93,0.00,,,0.00,Rainwise IP-100,2013-01-18 09:57:00,
2013-01-18 05:02:00,24.2,23.0,30.06,NE,45,1.9,3.7,93,0.00,,,0.00,Rainwise IP-100,2013-01-18 10:02:00,
2013-01-18 05:07:00,24.2,23.0,30.05,NW,315,0.0,4.2,93,0.00,,,0.00,Rainwise IP-100,2013-01-18 10:07:00,
2013-01-18 05:12:00,24.2,23.0,30.05,North,360,1.9,5.1,93,0.00,,,0.00,Rainwise IP-100,2013-01-18 10:12:00,
2013-01-18 05:17:00,24.3,23.0,30.05,NNW,337,5.4,6.3,92,0.00,,,0.00,Rainwise IP-100,2013-01-18 10:17:00,
2013-01-18 05:22:00,24.5,24.0,30.05,North,360,2.3,5.8,92,0.00,,,0.00,Rainwise IP-100,2013-01-18 10:22:00,
2013-01-18 05:27:00,24.5,24.0,30.06,NNW,337,1.2,5.1,92,0.00,,,0.00,Rainwise IP-100,2013-01-18 10:27:00,
2013-01-18 05:32:00,24.5,24.0,30.08,NNW,337,3.3,3.5,92,0.00,,,0.00,Rainwise IP-100,2013-01-18 10:32:00,
2013-01-18 05:37:00,24.6,24.0,30.08,NNW,337,1.9,4.2,91,0.00,,,0.00,Rainwise IP-100,2013-01-18 10:37:00,
2013-01-18 05:42:00,24.7,24.0,30.08,NNW,337,2.8,3.5,91,0.00,,,0.00,Rainwise IP-100,2013-01-18 10:42:00,
2013-01-18 05:47:00,24.7,24.0,30.10,NNW,337,2.8,4.4,90,0.00,,,0.00,Rainwise IP-100,2013-01-18 10:47:00,
2013-01-18 05:52:00,25.0,23.0,30.10,North,360,4.0,7.7,88,0.00,,,0.00,Rainwise IP-100,2013-01-18 10:52:00,
2013-01-18 05:57:00,25.3,23.0,30.10,NNW,337,6.1,9.1,85,0.00,,,0.00,Rainwise IP-100,2013-01-18 10:57:00,
2013-01-18 06:02:00,25.5,21.0,30.10,NNW,337,8.9,8.9,82,0.00,,,0.00,Rainwise IP-100,2013-01-18 11:02:00,
2013-01-18 06:07:00,25.6,21.0,30.12,North,360,4.4,11.4,77,0.00,,,0.00,Rainwise IP-100,2013-01-18 11:07:00,
2013-01-18 06:12:00,25.5,18.0,30.12,NE,45,4.9,17.0,72,0.00,,,0.00,Rainwise IP-100,2013-01-18 11:12:00,
2013-01-18 06:17:00,25.4,16.0,30.12,North,360,8.9,13.3,67,0.00,,,0.00,Rainwise IP-100,2013-01-18 11:17:00,
2013-01-18 06:22:00,25.4,16.0,30.14,NNW,337,7.0,12.8,63,0.00,,,0.00,Rainwise IP-100,2013-01-18 11:22:00,
2013-01-18 06:27:00,25.3,14.0,30.13,North,360,2.3,13.5,59,0.00,,,0.00,Rainwise IP-100,2013-01-18 11:27:00,
2013-01-18 06:32:00,25.1,14.0,30.14,NW,315,5.1,13.8,58,0.00,,,0.00,Rainwise IP-100,2013-01-18 11:32:00,
2013-01-18 06:37:00,24.8,14.0,30.14,North,360,12.8,17.5,57,0.00,,,0.00,Rainwise IP-100,2013-01-18 11:37:00,
2013-01-18 06:42:00,24.7,14.0,30.14,North,360,5.6,17.0,55,0.00,,,0.00,Rainwise IP-100,2013-01-18 11:42:00,
2013-01-18 06:47:00,24.4,11.0,30.15,NNW,337,4.4,11.9,53,0.00,,,0.00,Rainwise IP-100,2013-01-18 11:47:00,
2013-01-18 06:52:00,24.1,11.0,30.16,North,360,9.8,15.4,51,0.00,,,0.00,Rainwise IP-100,2013-01-18 11:52:00,
2013-01-18 06:57:00,23.8,8.0,30.16,NNW,337,6.8,15.6,49,0.00,,,0.00,Rainwise IP-100,2013-01-18 11:57:00,
2013-01-18 07:02:00,23.6,8.0,30.17,North,360,4.9,15.2,49,0.00,,,0.00,Rainwise IP-100,2013-01-18 12:02:00,
2013-01-18 07:07:00,23.2,8.0,30.17,NNW,337,7.9,12.8,49,0.00,,,0.00,Rainwise IP-100,2013-01-18 12:07:00,
2013-01-18 07:12:00,23.0,8.0,30.18,NNE,22,4.7,15.6,48,0.00,,,0.00,Rainwise IP-100,2013-01-18 12:12:00,
2013-01-18 07:17:00,22.8,8.0,30.17,NNW,337,8.4,8.4,47,0.00,,,0.00,Rainwise IP-100,2013-01-18 12:17:00,
2013-01-18 07:22:00,22.6,8.0,30.17,NNW,337,3.3,9.6,47,0.00,,,0.00,Rainwise IP-100,2013-01-18 12:22:00,
2013-01-18 07:27:00,22.4,8.0,30.17,NNW,337,6.1,7.7,47,0.00,,,0.00,Rainwise IP-100,2013-01-18 12:27:00,
2013-01-18 07:32:00,22.2,8.0,30.17,NW,315,8.6,11.0,47,0.00,,,0.00,Rainwise IP-100,2013-01-18 12:32:00,
2013-01-18 07:37:00,22.1,8.0,30.18,North,360,4.4,12.6,47,0.00,,,0.00,Rainwise IP-100,2013-01-18 12:37:00,
2013-01-18 07:42:00,22.1,8.0,30.19,NNW,337,4.7,11.7,46,0.00,,,0.00,Rainwise IP-100,2013-01-18 12:42:00,
2013-01-18 07:47:00,22.2,4.0,30.20,North,360,7.7,12.8,45,0.00,,,0.00,Rainwise IP-100,2013-01-18 12:47:00,
2013-01-18 07:52:00,22.2,4.0,30.21,NNW,337,8.9,15.6,44,0.00,,,0.00,Rainwise IP-100,2013-01-18 12:52:00,
2013-01-18 07:57:00,22.2,4.0,30.21,NNW,337,6.1,14.0,44,0.00,,,0.00,Rainwise IP-100,2013-01-18 12:57:00,
2013-01-18 08:02:00,22.1,4.0,30.21,NNW,337,7.2,13.1,45,0.00,,,0.00,Rainwise IP-100,2013-01-18 13:02:00,
2013-01-18 08:07:00,22.2,4.0,30.22,North,360,7.2,17.3,44,0.00,,,0.00,Rainwise IP-100,2013-01-18 13:07:00,
2013-01-18 08:12:00,22.4,4.0,30.22,NE,45,5.8,10.5,44,0.00,,,0.00,Rainwise IP-100,2013-01-18 13:12:00,
2013-01-18 08:17:00,22.5,4.0,30.23,NNW,337,4.0,13.5,44,0.00,,,0.00,Rainwise IP-100,2013-01-18 13:17:00,
2013-01-18 08:22:00,22.7,4.0,30.24,NNW,337,6.3,11.9,44,0.00,,,0.00,Rainwise IP-100,2013-01-18 13:22:00,
2013-01-18 08:27:00,23.1,4.0,30.24,NNW,337,1.9,14.2,44,0.00,,,0.00,Rainwise IP-100,2013-01-18 13:27:00,
2013-01-18 08:32:00,23.4,4.0,30.24,North,360,8.9,12.6,43,0.00,,,0.00,Rainwise IP-100,2013-01-18 13:32:00,
2013-01-18 08:37:00,23.6,4.0,30.25,NNW,337,5.6,13.1,42,0.00,,,0.00,Rainwise IP-100,2013-01-18 13:37:00,
2013-01-18 08:42:00,23.4,4.0,30.25,NNE,22,6.8,17.7,42,0.00,,,0.00,Rainwise IP-100,2013-01-18 13:42:00,
2013-01-18 08:47:00,23.1,4.0,30.25,NNW,337,9.1,16.6,42,0.00,,,0.00,Rainwise IP-100,2013-01-18 13:47:00,
2013-01-18 08:52:00,23.3,4.0,30.26,NNW,337,7.7,13.1,42,0.00,,,0.00,Rainwise IP-100,2013-01-18 13:52:00,
2013-01-18 08:57:00,23.4,4.0,30.26,NNW,337,5.1,18.7,43,0.00,,,0.00,Rainwise IP-100,2013-01-18 13:57:00,
2013-01-18 09:02:00,23.4,4.0,30.26,NNE,22,2.8,19.4,43,0.00,,,0.00,Rainwise IP-100,2013-01-18 14:02:00,
2013-01-18 09:07:00,23.7,8.0,30.27,NW,315,7.9,13.3,44,0.00,,,0.00,Rainwise IP-100,2013-01-18 14:07:00,
2013-01-18 09:12:00,23.9,8.0,30.28,NNW,337,10.5,17.0,43,0.00,,,0.00,Rainwise IP-100,2013-01-18 14:12:00,
2013-01-18 09:17:00,23.8,8.0,30.28,North,360,5.4,14.0,43,0.00,,,0.00,Rainwise IP-100,2013-01-18 14:17:00,
2013-01-18 09:22:00,23.5,8.0,30.28,WNW,292,3.5,16.3,44,0.00,,,0.00,Rainwise IP-100,2013-01-18 14:22:00,
2013-01-18 09:27:00,23.2,4.0,30.28,NNW,337,8.9,18.2,44,0.00,,,0.00,Rainwise IP-100,2013-01-18 14:27:00,
2013-01-18 09:32:00,23.1,4.0,30.29,NW,315,4.4,14.7,44,0.00,,,0.00,Rainwise IP-100,2013-01-18 14:32:00,
2013-01-18 09:37:00,23.5,8.0,30.30,NNW,337,5.8,11.0,44,0.00,,,0.00,Rainwise IP-100,2013-01-18 14:37:00,
2013-01-18 09:42:00,23.6,8.0,30.30,NNW,337,8.2,12.4,43,0.00,,,0.00,Rainwise IP-100,2013-01-18 14:42:00,
2013-01-18 09:47:00,23.7,4.0,30.30,North,360,7.0,15.2,42,0.00,,,0.00,Rainwise IP-100,2013-01-18 14:47:00,
2013-01-18 09:52:00,23.6,4.0,30.30,WSW,247,6.1,17.5,41,0.00,,,0.00,Rainwise IP-100,2013-01-18 14:52:00,
2013-01-18 09:57:00,23.5,4.0,30.30,North,360,10.0,16.3,40,0.00,,,0.00,Rainwise IP-100,2013-01-18 14:57:00,
2013-01-18 10:02:00,23.7,4.0,30.30,North,360,11.0,16.8,39,0.00,,,0.00,Rainwise IP-100,2013-01-18 15:02:00,
2013-01-18 10:07:00,23.5,4.0,30.31,NNW,337,7.9,18.2,38,0.00,,,0.00,Rainwise IP-100,2013-01-18 15:07:00,
2013-01-18 10:12:00,23.8,4.0,30.31,NNW,337,7.9,11.9,38,0.00,,,0.00,Rainwise IP-100,2013-01-18 15:12:00,
2013-01-18 10:17:00,24.3,4.0,30.31,NNW,337,7.0,9.8,38,0.00,,,0.00,Rainwise IP-100,2013-01-18 15:17:00,
2013-01-18 10:22:00,24.2,4.0,30.31,NW,315,11.2,13.5,38,0.00,,,0.00,Rainwise IP-100,2013-01-18 15:22:00,
2013-01-18 10:27:00,24.0,4.0,30.32,North,360,3.0,13.1,37,0.00,,,0.00,Rainwise IP-100,2013-01-18 15:27:00,
2013-01-18 10:32:00,24.2,4.0,30.31,East,90,4.9,11.4,37,0.00,,,0.00,Rainwise IP-100,2013-01-18 15:32:00,
2013-01-18 10:37:00,24.2,4.0,30.32,North,360,2.6,17.7,36,0.00,,,0.00,Rainwise IP-100,2013-01-18 15:37:00,
2013-01-18 10:42:00,24.1,4.0,30.33,NNW,337,7.2,14.9,36,0.00,,,0.00,Rainwise IP-100,2013-01-18 15:42:00,
2013-01-18 10:47:00,23.9,4.0,30.32,North,360,6.5,15.9,35,0.00,,,0.00,Rainwise IP-100,2013-01-18 15:47:00,
2013-01-18 10:52:00,23.7,4.0,30.33,NNW,337,5.1,12.8,35,0.00,,,0.00,Rainwise IP-100,2013-01-18 15:52:00,
2013-01-18 10:57:00,23.9,4.0,30.33,NNE,22,7.0,13.8,36,0.00,,,0.00,Rainwise IP-100,2013-01-18 15:57:00,
2013-01-18 11:02:00,24.1,4.0,30.33,NW,315,6.3,10.0,36,0.00,,,0.00,Rainwise IP-100,2013-01-18 16:02:00,
2013-01-18 11:07:00,24.0,4.0,30.33,NW,315,9.1,19.6,37,0.00,,,0.00,Rainwise IP-100,2013-01-18 16:07:00,
2013-01-18 11:12:00,23.9,4.0,30.32,WNW,292,4.4,14.5,37,0.00,,,0.00,Rainwise IP-100,2013-01-18 16:12:00,
2013-01-18 11:17:00,24.3,4.0,30.32,WSW,247,5.4,9.6,37,0.00,,,0.00,Rainwise IP-100,2013-01-18 16:17:00,
2013-01-18 11:22:00,24.8,4.0,30.32,WNW,292,3.0,10.0,37,0.00,,,0.00,Rainwise IP-100,2013-01-18 16:22:00,
2013-01-18 11:27:00,24.3,4.0,30.32,NW,315,8.2,17.7,37,0.00,,,0.00,Rainwise IP-100,2013-01-18 16:27:00,
2013-01-18 11:32:00,23.9,4.0,30.32,North,360,7.2,18.4,36,0.00,,,0.00,Rainwise IP-100,2013-01-18 16:32:00,
2013-01-18 11:37:00,24.0,4.0,30.32,NW,315,9.8,14.7,35,0.00,,,0.00,Rainwise IP-100,2013-01-18 16:37:00,
2013-01-18 11:42:00,23.9,4.0,30.32,NNW,337,13.5,17.0,35,0.00,,,0.00,Rainwise IP-100,2013-01-18 16:42:00,
2013-01-18 11:47:00,23.9,4.0,30.32,WNW,292,13.1,19.8,35,0.00,,,0.00,Rainwise IP-100,2013-01-18 16:47:00,
2013-01-18 11:52:00,24.0,4.0,30.32,NNW,337,4.2,17.0,35,0.00,,,0.00,Rainwise IP-100,2013-01-18 16:52:00,
2013-01-18 11:57:00,24.1,4.0,30.32,NW,315,7.5,22.4,35,0.00,,,0.00,Rainwise IP-100,2013-01-18 16:57:00,
2013-01-18 12:02:00,24.2,4.0,30.32,NNW,337,4.2,14.5,35,0.00,,,0.00,Rainwise IP-100,2013-01-18 17:02:00,
2013-01-18 12:07:00,24.6,4.0,30.32,NNW,337,7.9,11.4,35,0.00,,,0.00,Rainwise IP-100,2013-01-18 17:07:00,
2013-01-18 12:12:00,24.7,4.0,30.32,North,360,6.3,16.1,35,0.00,,,0.00,Rainwise IP-100,2013-01-18 17:12:00,
2013-01-18 12:17:00,24.7,4.0,30.32,North,360,2.8,14.7,35,0.00,,,0.00,Rainwise IP-100,2013-01-18 17:17:00,
2013-01-18 12:22:00,25.0,4.0,30.32,WSW,247,8.6,12.1,35,0.00,,,0.00,Rainwise IP-100,2013-01-18 17:22:00,
2013-01-18 12:27:00,24.7,4.0,30.32,NW,315,7.5,16.6,35,0.00,,,0.00,Rainwise IP-100,2013-01-18 17:27:00,
2013-01-18 12:32:00,24.4,4.0,30.32,NNW,337,1.6,14.0,35,0.00,,,0.00,Rainwise IP-100,2013-01-18 17:32:00,
2013-01-18 12:37:00,24.5,4.0,30.32,North,360,13.8,13.8,35,0.00,,,0.00,Rainwise IP-100,2013-01-18 17:37:00,
2013-01-18 12:42:00,24.5,4.0,30.33,WNW,292,8.6,20.8,35,0.00,,,0.00,Rainwise IP-100,2013-01-18 17:42:00,
2013-01-18 12:47:00,24.5,4.0,30.33,WNW,292,4.2,11.4,35,0.00,,,0.00,Rainwise IP-100,2013-01-18 17:47:00,
2013-01-18 12:52:00,24.8,4.0,30.33,West,270,10.5,14.7,35,0.00,,,0.00,Rainwise IP-100,2013-01-18 17:52:00,
2013-01-18 12:57:00,24.9,4.0,30.33,North,360,8.4,17.0,35,0.00,,,0.00,Rainwise IP-100,2013-01-18 17:57:00,
2013-01-18 13:02:00,24.9,4.0,30.33,WNW,292,3.3,15.2,35,0.00,,,0.00,Rainwise IP-100,2013-01-18 18:02:00,
2013-01-18 13:07:00,25.0,4.0,30.34,NW,315,8.6,13.5,35,0.00,,,0.00,Rainwise IP-100,2013-01-18 18:07:00,
2013-01-18 13:12:00,25.1,4.0,30.34,WNW,292,4.0,16.1,35,0.00,,,0.00,Rainwise IP-100,2013-01-18 18:12:00,
2013-01-18 13:17:00,25.2,4.0,30.34,WNW,292,3.5,22.2,34,0.00,,,0.00,Rainwise IP-100,2013-01-18 18:17:00,
2013-01-18 13:22:00,25.3,4.0,30.34,NNW,337,6.1,13.1,34,0.00,,,0.00,Rainwise IP-100,2013-01-18 18:22:00,
2013-01-18 13:27:00,25.3,4.0,30.35,West,270,3.3,17.0,34,0.00,,,0.00,Rainwise IP-100,2013-01-18 18:27:00,
2013-01-18 13:32:00,25.0,4.0,30.35,NNW,337,8.4,20.3,33,0.00,,,0.00,Rainwise IP-100,2013-01-18 18:32:00,
2013-01-18 13:37:00,25.0,4.0,30.35,North,360,4.2,20.3,33,0.00,,,0.00,Rainwise IP-100,2013-01-18 18:37:00,
2013-01-18 13:42:00,25.2,4.0,30.35,NW,315,7.0,11.9,33,0.00,,,0.00,Rainwise IP-100,2013-01-18 18:42:00,
2013-01-18 13:48:00,25.3,4.0,30.35,NNW,337,2.3,18.0,33,0.00,,,0.00,Rainwise IP-100,2013-01-18 18:48:00,
2013-01-18 13:53:00,25.4,0.0,30.35,NW,315,4.4,11.7,32,0.00,,,0.00,Rainwise IP-100,2013-01-18 18:53:00,
2013-01-18 13:58:00,25.4,0.0,30.34,NNW,337,5.6,11.0,32,0.00,,,0.00,Rainwise IP-100,2013-01-18 18:58:00,
2013-01-18 14:03:00,25.4,0.0,30.35,NW,315,6.1,12.8,32,0.00,,,0.00,Rainwise IP-100,2013-01-18 19:03:00,
2013-01-18 14:08:00,25.8,0.0,30.35,NNE,22,6.5,10.5,32,0.00,,,0.00,Rainwise IP-100,2013-01-18 19:08:00,
2013-01-18 14:13:00,26.1,0.0,30.35,NNW,337,9.1,14.7,32,0.00,,,0.00,Rainwise IP-100,2013-01-18 19:13:00,
2013-01-18 14:18:00,26.0,0.0,30.35,West,270,2.1,9.1,32,0.00,,,0.00,Rainwise IP-100,2013-01-18 19:18:00,
2013-01-18 14:23:00,26.0,0.0,30.35,North,360,4.9,16.3,31,0.00,,,0.00,Rainwise IP-100,2013-01-18 19:23:00,
2013-01-18 14:28:00,26.0,0.0,30.35,WNW,292,6.8,10.5,31,0.00,,,0.00,Rainwise IP-100,2013-01-18 19:28:00,
2013-01-18 14:33:00,26.1,0.0,30.35,West,270,3.0,11.7,32,0.00,,,0.00,Rainwise IP-100,2013-01-18 19:33:00,
2013-01-18 14:38:00,26.3,0.0,30.35,NW,315,8.2,11.9,32,0.00,,,0.00,Rainwise IP-100,2013-01-18 19:38:00,
2013-01-18 14:43:00,26.2,0.0,30.36,North,360,6.3,14.2,32,0.00,,,0.00,Rainwise IP-100,2013-01-18 19:43:00,
2013-01-18 14:48:00,26.0,0.0,30.35,West,270,1.9,9.6,32,0.00,,,0.00,Rainwise IP-100,2013-01-18 19:48:00,
2013-01-18 14:53:00,26.3,0.0,30.35,NNW,337,8.6,11.0,32,0.00,,,0.00,Rainwise IP-100,2013-01-18 19:53:00,
2013-01-18 14:58:00,26.3,0.0,30.36,WNW,292,3.3,12.6,32,0.00,,,0.00,Rainwise IP-100,2013-01-18 19:58:00,
2013-01-18 15:03:00,26.0,0.0,30.36,WNW,292,2.1,11.4,32,0.00,,,0.00,Rainwise IP-100,2013-01-18 20:03:00,
2013-01-18 15:08:00,26.0,0.0,30.37,West,270,6.1,10.7,32,0.00,,,0.00,Rainwise IP-100,2013-01-18 20:08:00,
2013-01-18 15:13:00,25.8,0.0,30.37,West,270,5.6,15.6,32,0.00,,,0.00,Rainwise IP-100,2013-01-18 20:13:00,
2013-01-18 15:18:00,25.7,0.0,30.37,North,360,8.6,11.9,32,0.00,,,0.00,Rainwise IP-100,2013-01-18 20:18:00,
2013-01-18 15:23:00,25.7,0.0,30.37,NW,315,7.9,13.8,31,0.00,,,0.00,Rainwise IP-100,2013-01-18 20:23:00,
2013-01-18 15:28:00,25.5,0.0,30.38,NW,315,1.6,12.6,31,0.00,,,0.00,Rainwise IP-100,2013-01-18 20:28:00,
2013-01-18 15:33:00,25.8,0.0,30.38,NNE,22,2.6,11.2,31,0.00,,,0.00,Rainwise IP-100,2013-01-18 20:33:00,
2013-01-18 15:38:00,25.8,0.0,30.38,WNW,292,9.8,12.6,32,0.00,,,0.00,Rainwise IP-100,2013-01-18 20:38:00,
2013-01-18 15:43:00,25.6,0.0,30.38,WNW,292,3.7,12.6,31,0.00,,,0.00,Rainwise IP-100,2013-01-18 20:43:00,
2013-01-18 15:48:00,25.6,0.0,30.38,WNW,292,3.0,9.6,31,0.00,,,0.00,Rainwise IP-100,2013-01-18 20:48:00,
2013-01-18 15:53:00,25.5,0.0,30.39,North,360,5.4,9.3,32,0.00,,,0.00,Rainwise IP-100,2013-01-18 20:53:00,
2013-01-18 15:58:00,25.5,0.0,30.39,NNW,337,3.7,8.9,32,0.00,,,0.00,Rainwise IP-100,2013-01-18 20:58:00,
2013-01-18 16:03:00,25.4,0.0,30.38,WNW,292,6.5,9.1,32,0.00,,,0.00,Rainwise IP-100,2013-01-18 21:03:00,
2013-01-18 16:08:00,25.4,4.0,30.39,West,270,4.0,10.5,33,0.00,,,0.00,Rainwise IP-100,2013-01-18 21:08:00,
2013-01-18 16:13:00,25.2,4.0,30.39,NNW,337,7.0,9.1,33,0.00,,,0.00,Rainwise IP-100,2013-01-18 21:13:00,
2013-01-18 16:18:00,25.1,4.0,30.39,NNW,337,3.3,13.1,33,0.00,,,0.00,Rainwise IP-100,2013-01-18 21:18:00,
2013-01-18 16:23:00,25.0,4.0,30.39,NW,315,5.1,8.4,33,0.00,,,0.00,Rainwise IP-100,2013-01-18 21:23:00,
2013-01-18 16:28:00,24.7,4.0,30.39,WNW,292,7.5,8.2,33,0.00,,,0.00,Rainwise IP-100,2013-01-18 21:28:00,
2013-01-18 16:33:00,24.3,0.0,30.39,NNW,337,2.1,8.2,33,0.00,,,0.00,Rainwise IP-100,2013-01-18 21:33:00,
2013-01-18 16:38:00,24.1,0.0,30.40,NNW,337,3.3,6.5,33,0.00,,,0.00,Rainwise IP-100,2013-01-18 21:38:00,
2013-01-18 16:43:00,23.9,0.0,30.40,WNW,292,0.0,4.9,34,0.00,,,0.00,Rainwise IP-100,2013-01-18 21:43:00,
2013-01-18 16:48:00,23.6,4.0,30.40,NNW,337,1.6,5.1,35,0.00,,,0.00,Rainwise IP-100,2013-01-18 21:48:00,
2013-01-18 16:53:00,23.2,0.0,30.40,NNW,337,0.0,2.1,35,0.00,,,0.00,Rainwise IP-100,2013-01-18 21:53:00,
2013-01-18 16:58:00,22.9,0.0,30.40,NNW,337,0.0,2.8,36,0.00,,,0.00,Rainwise IP-100,2013-01-18 21:58:00,
2013-01-18 17:03:00,22.8,0.0,30.40,NW,315,0.0,3.3,36,0.00,,,0.00,Rainwise IP-100,2013-01-18 22:03:00,
2013-01-18 17:08:00,22.6,0.0,30.40,WNW,292,1.4,3.0,37,0.00,,,0.00,Rainwise IP-100,2013-01-18 22:08:00,
2013-01-18 17:13:00,22.7,4.0,30.40,West,270,1.4,4.9,38,0.00,,,0.00,Rainwise IP-100,2013-01-18 22:13:00,
2013-01-18 17:18:00,22.9,4.0,30.40,NW,315,0.0,2.6,38,0.00,,,0.00,Rainwise IP-100,2013-01-18 22:18:00,
2013-01-18 17:23:00,22.7,4.0,30.41,NW,315,0.0,1.2,39,0.00,,,0.00,Rainwise IP-100,2013-01-18 22:23:00,
2013-01-18 17:28:00,22.3,4.0,30.41,North,360,0.0,1.6,40,0.00,,,0.00,Rainwise IP-100,2013-01-18 22:28:00,
2013-01-18 17:33:00,21.8,4.0,30.42,North,360,0.0,0.0,43,0.00,,,0.00,Rainwise IP-100,2013-01-18 22:33:00,
2013-01-18 17:38:00,21.2,4.0,30.41,North,360,0.0,0.0,45,0.00,,,0.00,Rainwise IP-100,2013-01-18 22:38:00,
2013-01-18 17:43:00,20.8,4.0,30.42,North,360,0.0,0.0,46,0.00,,,0.00,Rainwise IP-100,2013-01-18 22:43:00,
2013-01-18 17:48:00,20.7,4.0,30.42,NW,315,2.1,3.3,46,0.00,,,0.00,Rainwise IP-100,2013-01-18 22:48:00,
2013-01-18 17:53:00,21.3,4.0,30.42,WNW,292,1.2,3.5,44,0.00,,,0.00,Rainwise IP-100,2013-01-18 22:53:00,
2013-01-18 17:58:00,21.8,4.0,30.42,WSW,247,2.1,5.4,43,0.00,,,0.00,Rainwise IP-100,2013-01-18 22:58:00,
2013-01-18 18:03:00,21.9,4.0,30.42,North,360,0.0,3.5,43,0.00,,,0.00,Rainwise IP-100,2013-01-18 23:03:00,
2013-01-18 18:08:00,21.6,4.0,30.42,West,270,0.0,2.1,43,0.00,,,0.00,Rainwise IP-100,2013-01-18 23:08:00,
2013-01-18 18:13:00,21.1,4.0,30.42,WSW,247,1.2,2.1,43,0.00,,,0.00,Rainwise IP-100,2013-01-18 23:13:00,
2013-01-18 18:18:00,21.0,4.0,30.42,WSW,247,0.0,1.6,43,0.00,,,0.00,Rainwise IP-100,2013-01-18 23:18:00,
2013-01-18 18:23:00,21.1,4.0,30.43,WSW,247,0.0,1.6,43,0.00,,,0.00,Rainwise IP-100,2013-01-18 23:23:00,
2013-01-18 18:28:00,21.1,4.0,30.42,WSW,247,0.0,1.9,44,0.00,,,0.00,Rainwise IP-100,2013-01-18 23:28:00,
2013-01-18 18:33:00,20.9,4.0,30.43,West,270,0.0,0.0,44,0.00,,,0.00,Rainwise IP-100,2013-01-18 23:33:00,
2013-01-18 18:38:00,20.5,4.0,30.44,West,270,0.0,0.0,44,0.00,,,0.00,Rainwise IP-100,2013-01-18 23:38:00,
2013-01-18 18:43:00,20.3,4.0,30.44,West,270,0.0,0.0,46,0.00,,,0.00,Rainwise IP-100,2013-01-18 23:43:00,
2013-01-18 18:48:00,20.0,4.0,30.44,West,270,0.0,0.0,47,0.00,,,0.00,Rainwise IP-100,2013-01-18 23:48:00,
2013-01-18 18:53:00,19.5,4.0,30.44,West,270,0.0,0.0,48,0.00,,,0.00,Rainwise IP-100,2013-01-18 23:53:00,
2013-01-18 18:58:00,19.6,4.0,30.44,West,270,0.0,1.9,47,0.00,,,0.00,Rainwise IP-100,2013-01-18 23:58:00,
2013-01-18 19:03:00,20.0,4.0,30.44,West,270,0.0,4.7,47,0.00,,,0.00,Rainwise IP-100,2013-01-19 00:03:00,
2013-01-18 19:08:00,20.4,4.0,30.45,WSW,247,1.9,4.4,47,0.00,,,0.00,Rainwise IP-100,2013-01-19 00:08:00,
2013-01-18 19:13:00,20.2,4.0,30.46,South,180,2.8,3.7,48,0.00,,,0.00,Rainwise IP-100,2013-01-19 00:13:00,
2013-01-18 19:18:00,19.6,4.0,30.46,SSW,202,1.6,3.0,49,0.00,,,0.00,Rainwise IP-100,2013-01-19 00:18:00,
2013-01-18 19:23:00,19.9,8.0,30.46,WNW,292,2.3,4.9,50,0.00,,,0.00,Rainwise IP-100,2013-01-19 00:23:00,
2013-01-18 19:28:00,20.8,8.0,30.46,WNW,292,0.0,4.9,50,0.00,,,0.00,Rainwise IP-100,2013-01-19 00:28:00,
2013-01-18 19:33:00,21.2,4.0,30.46,West,270,3.0,4.4,49,0.00,,,0.00,Rainwise IP-100,2013-01-19 00:33:00,
2013-01-18 19:38:00,21.2,4.0,30.47,WSW,247,0.0,4.7,48,0.00,,,0.00,Rainwise IP-100,2013-01-19 00:38:00,
2013-01-18 19:43:00,21.0,4.0,30.47,WSW,247,0.0,3.0,48,0.00,,,0.00,Rainwise IP-100,2013-01-19 00:43:00,
2013-01-18 19:48:00,20.5,4.0,30.47,SW,225,0.0,3.7,49,0.00,,,0.00,Rainwise IP-100,2013-01-19 00:48:00,
2013-01-18 19:53:00,20.3,4.0,30.47,SW,225,1.2,2.1,49,0.00,,,0.00,Rainwise IP-100,2013-01-19 00:53:00,
2013-01-18 19:58:00,20.2,8.0,30.46,West,270,3.5,3.5,51,0.00,,,0.00,Rainwise IP-100,2013-01-19 00:58:00,
2013-01-18 20:03:00,20.4,8.0,30.46,WNW,292,2.3,3.7,52,0.00,,,0.00,Rainwise IP-100,2013-01-19 01:03:00,
2013-01-18 20:08:00,20.6,8.0,30.46,South,180,1.6,3.0,52,0.00,,,0.00,Rainwise IP-100,2013-01-19 01:08:00,
2013-01-18 20:13:00,20.4,8.0,30.47,SSE,157,2.6,3.3,52,0.00,,,0.00,Rainwise IP-100,2013-01-19 01:13:00,
2013-01-18 20:18:00,20.0,8.0,30.47,SW,225,1.2,2.8,54,0.00,,,0.00,Rainwise IP-100,2013-01-19 01:18:00,
2013-01-18 20:23:00,19.9,8.0,30.46,NW,315,1.4,4.7,55,0.00,,,0.00,Rainwise IP-100,2013-01-19 01:23:00,
2013-01-18 20:28:00,20.2,8.0,30.46,West,270,0.0,4.0,54,0.00,,,0.00,Rainwise IP-100,2013-01-19 01:28:00,
2013-01-18 20:33:00,20.0,8.0,30.46,South,180,1.9,3.5,54,0.00,,,0.00,Rainwise IP-100,2013-01-19 01:33:00,
2013-01-18 20:38:00,19.6,8.0,30.46,South,180,1.2,2.3,54,0.00,,,0.00,Rainwise IP-100,2013-01-19 01:38:00,
2013-01-18 20:43:00,19.6,8.0,30.45,WNW,292,1.9,3.3,55,0.00,,,0.00,Rainwise IP-100,2013-01-19 01:43:00,
2013-01-18 20:48:00,20.1,8.0,30.44,WNW,292,1.2,5.1,54,0.00,,,0.00,Rainwise IP-100,2013-01-19 01:48:00,
2013-01-18 20:53:00,20.6,8.0,30.45,South,180,3.0,3.7,53,0.00,,,0.00,Rainwise IP-100,2013-01-19 01:53:00,
2013-01-18 20:58:00,20.6,8.0,30.46,SE,135,0.0,4.4,54,0.00,,,0.00,Rainwise IP-100,2013-01-19 01:58:00,
2013-01-18 21:03:00,20.2,8.0,30.45,NNW,337,2.3,0.0,58,0.00,,,0.00,Rainwise IP-100,2013-01-19 02:03:00,
2013-01-18 21:08:00,19.9,8.0,30.44,NNW,337,1.2,2.8,59,0.00,,,0.00,Rainwise IP-100,2013-01-19 02:08:00,
2013-01-18 21:13:00,20.1,8.0,30.45,NW,315,0.0,3.3,57,0.00,,,0.00,Rainwise IP-100,2013-01-19 02:13:00,
2013-01-18 21:18:00,20.0,8.0,30.45,NW,315,0.0,0.0,55,0.00,,,0.00,Rainwise IP-100,2013-01-19 02:18:00,
2013-01-18 21:23:00,19.5,8.0,30.45,NW,315,0.0,0.0,57,0.00,,,0.00,Rainwise IP-100,2013-01-19 02:23:00,
2013-01-18 21:28:00,18.7,11.0,30.45,NW,315,0.0,2.8,61,0.00,,,0.00,Rainwise IP-100,2013-01-19 02:28:00,
2013-01-18 21:33:00,18.4,8.0,30.45,NW,315,0.0,0.0,61,0.00,,,0.00,Rainwise IP-100,2013-01-19 02:33:00,
2013-01-18 21:38:00,18.2,8.0,30.44,NW,315,0.0,0.0,63,0.00,,,0.00,Rainwise IP-100,2013-01-19 02:38:00,
2013-01-18 21:43:00,17.8,11.0,30.44,NW,315,0.0,0.0,65,0.00,,,0.00,Rainwise IP-100,2013-01-19 02:43:00,
2013-01-18 21:48:00,17.5,11.0,30.43,NW,315,0.0,0.0,66,0.00,,,0.00,Rainwise IP-100,2013-01-19 02:48:00,
2013-01-18 21:53:00,17.4,11.0,30.43,NW,315,0.0,0.0,67,0.00,,,0.00,Rainwise IP-100,2013-01-19 02:53:00,
2013-01-18 21:58:00,17.1,11.0,30.43,NW,315,0.0,0.0,66,0.00,,,0.00,Rainwise IP-100,2013-01-19 02:58:00,
2013-01-18 22:03:00,16.8,11.0,30.43,NW,315,0.0,0.0,67,0.00,,,0.00,Rainwise IP-100,2013-01-19 03:03:00,
2013-01-18 22:08:00,16.6,11.0,30.42,NNW,337,2.6,2.6,67,0.00,,,0.00,Rainwise IP-100,2013-01-19 03:08:00,
2013-01-18 22:13:00,16.5,11.0,30.43,NNW,337,1.6,3.0,67,0.00,,,0.00,Rainwise IP-100,2013-01-19 03:13:00,
2013-01-18 22:18:00,16.6,11.0,30.43,NNW,337,0.0,2.6,68,0.00,,,0.00,Rainwise IP-100,2013-01-19 03:18:00,
2013-01-18 22:23:00,16.7,11.0,30.43,NNW,337,1.4,1.4,69,0.00,,,0.00,Rainwise IP-100,2013-01-19 03:23:00,
2013-01-18 22:28:00,16.6,11.0,30.43,NNW,337,1.6,2.3,68,0.00,,,0.00,Rainwise IP-100,2013-01-19 03:28:00,
2013-01-18 22:33:00,16.6,11.0,30.43,NNW,337,1.2,2.6,67,0.00,,,0.00,Rainwise IP-100,2013-01-19 03:33:00,
2013-01-18 22:38:00,16.6,11.0,30.43,NNW,337,0.0,1.9,69,0.00,,,0.00,Rainwise IP-100,2013-01-19 03:38:00,
2013-01-18 22:43:00,16.6,11.0,30.43,WNW,292,0.0,2.3,71,0.00,,,0.00,Rainwise IP-100,2013-01-19 03:43:00,
2013-01-18 22:48:00,17.1,11.0,30.42,NW,315,0.0,2.1,69,0.00,,,0.00,Rainwise IP-100,2013-01-19 03:48:00,
2013-01-18 22:53:00,17.3,11.0,30.43,NW,315,2.8,3.0,68,0.00,,,0.00,Rainwise IP-100,2013-01-19 03:53:00,
2013-01-18 22:58:00,17.3,11.0,30.42,NNW,337,1.6,3.7,68,0.00,,,0.00,Rainwise IP-100,2013-01-19 03:58:00,
2013-01-18 23:03:00,17.3,11.0,30.42,NNW,337,1.4,1.9,67,0.00,,,0.00,Rainwise IP-100,2013-01-19 04:03:00,
2013-01-18 23:08:00,17.4,11.0,30.42,ENE,67,0.0,1.9,68,0.00,,,0.00,Rainwise IP-100,2013-01-19 04:08:00,
2013-01-18 23:13:00,17.5,11.0,30.41,ENE,67,1.2,0.0,69,0.00,,,0.00,Rainwise IP-100,2013-01-19 04:13:00,
2013-01-18 23:18:00,17.2,11.0,30.41,ENE,67,0.0,1.4,70,0.00,,,0.00,Rainwise IP-100,2013-01-19 04:18:00,
2013-01-18 23:23:00,17.0,11.0,30.41,ENE,67,0.0,0.0,69,0.00,,,0.00,Rainwise IP-100,2013-01-19 04:23:00,
2013-01-18 23:28:00,17.5,11.0,30.41,NW,315,1.2,2.3,68,0.00,,,0.00,Rainwise IP-100,2013-01-19 04:28:00,
2013-01-18 23:33:00,18.4,11.0,30.41,NW,315,0.0,1.9,67,0.00,,,0.00,Rainwise IP-100,2013-01-19 04:33:00,
2013-01-18 23:38:00,18.8,11.0,30.41,NW,315,0.0,2.1,66,0.00,,,0.00,Rainwise IP-100,2013-01-19 04:38:00,
2013-01-18 23:43:00,18.9,11.0,30.41,WNW,292,1.2,2.3,67,0.00,,,0.00,Rainwise IP-100,2013-01-19 04:43:00,
2013-01-18 23:48:00,19.6,11.0,30.41,SW,225,1.2,4.2,67,0.00,,,0.00,Rainwise IP-100,2013-01-19 04:48:00,
2013-01-18 23:53:00,20.3,11.0,30.41,SW,225,0.0,2.6,67,0.00,,,0.00,Rainwise IP-100,2013-01-19 04:53:00,
2013-01-18 23:58:00,20.5,11.0,30.40,WNW,292,0.0,3.5,67,0.00,,,0.00,Rainwise IP-100,2013-01-19 04:58:00,